createdAt,value
2023-11-06T00:03:58.301Z,54.85
2023-11-06T00:08:59.915Z,54.73
2023-11-06T00:14:01.949Z,54.84
2023-11-06T00:19:03.780Z,54.71
2023-11-06T00:24:06.973Z,55.32
2023-11-06T00:29:08.603Z,55.27
2023-11-06T00:34:10.347Z,55.85
2023-11-06T00:39:13.637Z,56.33
2023-11-06T00:44:15.335Z,55.77
2023-11-06T00:49:16.979Z,56.33
2023-11-06T00:54:18.767Z,56.07
2023-11-06T00:59:21.766Z,55.98
2023-11-06T01:04:23.485Z,56.02
2023-11-06T01:09:25.865Z,56.24
2023-11-06T01:14:27.520Z,56.19
2023-11-06T01:19:29.181Z,56.03
2023-11-06T01:24:31.129Z,56.31
2023-11-06T01:29:32.789Z,56.58
2023-11-06T01:34:34.420Z,56.43
2023-11-06T01:39:36.031Z,56.50
2023-11-06T01:44:38.495Z,56.68
2023-11-06T01:49:41.495Z,56.97
2023-11-06T01:54:43.388Z,56.34
2023-11-06T01:59:45.435Z,56.46
2023-11-06T02:04:50.847Z,56.28
2023-11-06T02:09:53.746Z,55.96
2023-11-06T02:14:56.549Z,56.42
2023-11-06T02:20:00.305Z,56.16
2023-11-06T02:25:01.954Z,56.28
2023-11-06T02:30:03.932Z,55.74
2023-11-06T02:35:08.887Z,55.98
2023-11-06T02:40:13.486Z,55.73
2023-11-06T02:45:15.541Z,55.69
2023-11-06T02:50:17.248Z,55.98
2023-11-06T02:55:18.862Z,56.01
2023-11-06T03:00:22.042Z,56.17
2023-11-06T03:05:23.898Z,56.57
2023-11-06T03:10:25.721Z,56.41
2023-11-06T03:15:27.313Z,56.29
2023-11-06T03:20:28.909Z,56.46
2023-11-06T03:25:30.537Z,56.60
2023-11-06T03:30:32.125Z,56.62
2023-11-06T03:35:33.857Z,56.67
2023-11-06T03:40:35.460Z,56.53
2023-11-06T03:45:37.022Z,56.74
2023-11-06T03:50:43.863Z,56.69
2023-11-06T03:55:45.465Z,56.68
2023-11-06T04:00:48.004Z,56.30
2023-11-06T04:05:49.694Z,56.45
2023-11-06T04:10:51.382Z,56.72
2023-11-06T04:15:52.958Z,56.22
2023-11-06T04:20:55.535Z,56.49
2023-11-06T04:25:57.277Z,56.49
2023-11-06T04:30:58.865Z,56.34
2023-11-06T04:36:00.557Z,56.27
2023-11-06T04:41:02.191Z,56.41
2023-11-06T04:46:04.340Z,56.67
2023-11-06T04:51:06.523Z,56.71
2023-11-06T04:56:08.655Z,56.82
2023-11-06T05:01:10.339Z,56.54
2023-11-06T05:06:11.950Z,56.69
2023-11-06T05:11:14.086Z,56.68
2023-11-06T05:16:15.758Z,56.76
2023-11-06T05:21:27.454Z,56.53
2023-11-06T05:26:29.018Z,56.36
2023-11-06T05:31:30.903Z,56.37
2023-11-06T05:36:32.481Z,56.50
2023-11-06T05:41:34.128Z,56.53
2023-11-06T05:46:35.666Z,56.43
2023-11-06T05:51:38.958Z,56.13
2023-11-06T05:56:40.488Z,56.40
2023-11-06T06:01:42.030Z,56.54
2023-11-06T06:06:43.753Z,56.56
2023-11-06T06:11:46.607Z,56.44
2023-11-06T06:16:50.572Z,56.01
2023-11-06T06:21:52.241Z,56.75
2023-11-06T06:26:53.865Z,56.93
2023-11-06T06:31:56.051Z,57.13
2023-11-06T06:36:57.686Z,57.09
2023-11-06T06:41:59.268Z,56.43
2023-11-06T06:47:00.855Z,57.11
2023-11-06T06:52:02.587Z,57.21
2023-11-06T06:57:05.376Z,56.83
2023-11-06T07:02:07.003Z,57.06
2023-11-06T07:07:08.758Z,57.03
2023-11-06T07:12:10.387Z,56.82
2023-11-06T07:17:12.016Z,57.12
2023-11-06T07:22:13.610Z,56.53
2023-11-06T07:27:15.291Z,56.56
2023-11-06T07:32:17.100Z,56.43
2023-11-06T07:37:18.817Z,56.21
2023-11-06T07:42:20.408Z,56.60
2023-11-06T07:47:22.026Z,56.41
2023-11-06T07:52:23.635Z,56.11
2023-11-06T07:57:27.436Z,56.41
2023-11-06T08:02:30.828Z,56.20
2023-11-06T08:07:32.547Z,56.05
2023-11-06T08:12:34.865Z,55.88
2023-11-06T08:17:37.096Z,55.88
2023-11-06T08:22:39.203Z,55.29
2023-11-06T08:27:40.921Z,55.16
2023-11-06T08:32:42.727Z,54.90
2023-11-06T08:37:44.408Z,55.12
2023-11-06T08:42:46.366Z,54.36
2023-11-06T08:47:48.060Z,54.12
2023-11-06T08:52:49.822Z,54.03
2023-11-06T08:57:51.502Z,54.14
2023-11-06T09:02:53.274Z,54.08
2023-11-06T09:07:54.957Z,53.49
2023-11-06T09:12:58.528Z,53.42
2023-11-06T09:18:00.319Z,52.88
2023-11-06T09:23:02.306Z,52.96
2023-11-06T09:28:04.152Z,52.71
2023-11-06T09:33:06.527Z,52.44
2023-11-06T09:38:09.568Z,52.31
2023-11-06T09:43:12.210Z,51.76
2023-11-06T09:48:19.651Z,51.85
2023-11-06T09:53:24.256Z,51.45
2023-11-06T09:58:26.506Z,51.54
2023-11-06T10:03:28.999Z,51.56
2023-11-06T10:08:32.051Z,51.29
2023-11-06T10:13:51.258Z,51.20
2023-11-06T10:19:13.659Z,50.95
2023-11-06T10:24:16.897Z,50.52
2023-11-06T10:29:20.116Z,50.80
2023-11-06T10:34:29.852Z,50.60
2023-11-06T10:39:32.782Z,50.33
2023-11-06T10:44:36.070Z,49.94
2023-11-06T10:50:02.615Z,49.71
2023-11-06T10:55:12.371Z,49.77
2023-11-06T11:00:25.050Z,48.98
2023-11-06T11:05:32.898Z,49.02
2023-11-06T11:10:37.104Z,48.13
2023-11-06T11:15:42.268Z,48.66
2023-11-06T11:20:51.329Z,48.56
2023-11-06T11:26:05.357Z,48.36
2023-11-06T11:31:33.557Z,46.64
2023-11-06T11:36:37.116Z,46.56
2023-11-06T11:41:40.239Z,46.94
2023-11-06T11:46:48.865Z,46.35
2023-11-06T11:51:51.162Z,47.61
2023-11-06T11:56:53.349Z,47.38
2023-11-06T12:01:55.181Z,46.87
2023-11-06T12:06:59.496Z,47.12
2023-11-06T12:12:01.101Z,46.59
2023-11-06T12:17:07.979Z,46.38
2023-11-06T12:22:16.199Z,46.30
2023-11-06T12:27:19.445Z,46.63
2023-11-06T12:32:23.604Z,46.55
2023-11-06T12:37:25.945Z,46.03
2023-11-06T12:42:29.752Z,46.62
2023-11-06T12:47:35.687Z,46.03
2023-11-06T12:52:40.071Z,46.18
2023-11-06T12:57:44.716Z,46.52
2023-11-06T13:02:47.316Z,46.12
2023-11-06T13:07:52.739Z,46.39
2023-11-06T13:12:54.430Z,45.92
2023-11-06T13:17:56.748Z,46.34
2023-11-06T13:22:59.773Z,46.00
2023-11-06T13:28:02.752Z,45.90
2023-11-06T13:33:08.572Z,45.62
2023-11-06T13:38:10.622Z,46.28
2023-11-06T13:43:12.961Z,45.80
2023-11-06T13:48:14.640Z,45.59
2023-11-06T13:53:25.994Z,45.49
2023-11-06T13:58:29.268Z,45.33
2023-11-06T14:03:31.016Z,45.42
2023-11-06T14:08:33.585Z,45.36
2023-11-06T14:13:35.178Z,45.36
2023-11-06T14:18:36.820Z,45.59
2023-11-06T14:23:38.804Z,45.71
2023-11-06T14:28:40.470Z,45.52
2023-11-06T14:33:42.086Z,45.98
2023-11-06T14:38:43.813Z,45.65
2023-11-06T14:43:45.439Z,45.68
2023-11-06T14:48:50.781Z,45.75
2023-11-06T14:53:58.492Z,45.78
2023-11-06T14:59:00.556Z,45.76
2023-11-06T15:04:03.047Z,45.87
2023-11-06T15:09:04.801Z,45.75
2023-11-06T15:14:07.548Z,46.15
2023-11-06T15:19:11.234Z,45.98
2023-11-06T15:24:14.276Z,45.82
2023-11-06T15:29:16.056Z,45.75
2023-11-06T15:34:18.284Z,45.69
2023-11-06T15:39:22.461Z,45.75
2023-11-06T15:44:24.670Z,45.60
2023-11-06T15:49:27.803Z,45.70
2023-11-06T15:54:34.262Z,45.86
2023-11-06T15:59:36.125Z,45.80
2023-11-06T16:04:38.000Z,45.79
2023-11-06T16:09:43.113Z,45.98
2023-11-06T16:14:45.247Z,45.87
2023-11-06T16:19:46.895Z,45.94
2023-11-06T16:24:48.483Z,46.38
2023-11-06T16:29:50.589Z,47.14
2023-11-06T16:34:52.504Z,48.26
2023-11-06T16:39:54.240Z,48.15
2023-11-06T16:44:55.806Z,48.77
2023-11-06T16:49:57.508Z,48.70
2023-11-06T16:54:59.243Z,48.73
2023-11-06T17:00:00.856Z,49.23
2023-11-06T17:05:05.991Z,49.60
2023-11-06T17:10:08.281Z,50.00
2023-11-06T17:15:11.409Z,49.98
2023-11-06T17:20:14.111Z,50.21
2023-11-06T17:25:15.965Z,50.32
2023-11-06T17:30:17.789Z,50.65
2023-11-06T17:35:19.536Z,50.67
2023-11-06T17:40:21.328Z,50.74
2023-11-06T17:45:22.967Z,51.17
2023-11-06T17:50:24.545Z,51.12
2023-11-06T17:55:26.886Z,51.19
2023-11-06T18:00:28.548Z,51.23
2023-11-06T18:05:30.192Z,51.20
2023-11-06T18:10:31.785Z,50.89
2023-11-06T18:15:33.539Z,51.37
2023-11-06T18:20:35.116Z,51.41
2023-11-06T18:25:37.071Z,51.63
2023-11-06T18:30:40.777Z,51.40
2023-11-06T18:35:43.527Z,51.50
2023-11-06T18:40:47.598Z,51.61
2023-11-06T18:45:49.310Z,51.65
2023-11-06T18:50:50.937Z,51.35
2023-11-06T18:55:52.800Z,51.64
2023-11-06T19:00:54.411Z,51.81
2023-11-06T19:05:56.516Z,52.00
2023-11-06T19:11:00.905Z,52.01
2023-11-06T19:16:03.390Z,52.07
2023-11-06T19:21:05.606Z,52.22
2023-11-06T19:26:07.231Z,52.28
2023-11-06T19:31:09.080Z,52.61
2023-11-06T19:36:11.541Z,52.88
2023-11-06T19:41:13.205Z,53.14
2023-11-06T19:46:15.416Z,53.08
2023-11-06T19:51:17.045Z,53.08
2023-11-06T19:56:19.347Z,53.25
2023-11-06T20:01:21.024Z,53.25
2023-11-06T20:06:22.873Z,53.15
2023-11-06T20:11:24.553Z,53.76
2023-11-06T20:16:26.267Z,53.68
2023-11-06T20:21:32.658Z,53.56
2023-11-06T20:26:34.705Z,53.57
2023-11-06T20:31:36.538Z,53.73
2023-11-06T20:36:42.709Z,53.70
2023-11-06T20:41:45.567Z,53.70
2023-11-06T20:46:47.976Z,53.45
2023-11-06T20:51:49.920Z,53.42
2023-11-06T20:56:51.535Z,53.07
2023-11-06T21:01:53.153Z,52.89
2023-11-06T21:06:54.738Z,52.92
2023-11-06T21:11:56.337Z,53.16
2023-11-06T21:16:57.959Z,52.88
2023-11-06T21:21:59.633Z,52.77
2023-11-06T21:27:01.454Z,52.64
2023-11-06T21:32:04.067Z,52.40
2023-11-06T21:37:05.933Z,52.33
2023-11-06T21:42:08.367Z,52.45
2023-11-06T21:47:12.029Z,52.21
2023-11-06T21:52:13.654Z,52.60
2023-11-06T21:57:15.240Z,52.29
2023-11-06T22:02:16.909Z,52.43
2023-11-06T22:07:19.302Z,52.02
2023-11-06T22:12:21.101Z,52.40
2023-11-06T22:17:22.771Z,52.09
2023-11-06T22:22:24.445Z,52.13
2023-11-06T22:27:27.407Z,52.15
2023-11-06T22:32:29.067Z,52.23
2023-11-06T22:37:30.704Z,52.11
2023-11-06T22:42:34.486Z,51.96
2023-11-06T22:47:36.228Z,52.07
2023-11-06T22:52:39.521Z,51.94
2023-11-06T22:57:41.771Z,52.03
2023-11-06T23:02:43.797Z,51.94
2023-11-06T23:07:45.486Z,51.79
2023-11-06T23:12:47.157Z,52.08
2023-11-06T23:17:49.027Z,52.31
2023-11-06T23:22:50.736Z,52.23
2023-11-06T23:27:53.560Z,52.48
2023-11-06T23:32:55.280Z,52.36
2023-11-06T23:37:57.075Z,52.40
2023-11-06T23:42:58.726Z,52.83
2023-11-06T23:48:00.700Z,52.94
2023-11-06T23:53:03.419Z,53.22
2023-11-06T23:58:05.078Z,52.89
